Terminal Aerodrome Forecast
Issued by NWS

Home | Current Version | Previous Version | Text Only | Print | Product List | Glossary On
Versions: 1 2 3 4 5 6 7 8 9 10 11 12 13 14 15 16 17 18
000
FTUS43 KGRR 070214 AAC
TAFMKG
TAF AMD
KMKG 070214Z 0702/0724 20012KT P6SM VCTS BKN040CB BKN100
      TEMPO 0702/0705 3SM -TSRA BR BKN035CB
     FM070500 21011KT 6SM -SHRA BR VCTS BKN025CB OVC050
     FM070800 28010KT 4SM -SHRA BR OVC009
     FM071300 36010KT P6SM SCT025
     FM071800 32011G20KT P6SM SKC=

USA.gov is the U.S. government's official web portal to all federal, state and local government web resources and services.